sensor_id;sensor_type;location;lat;lon;timestamp;temperature;humidity
22526;DHT22;11429;50.842;4.386;2024-03-08T00:01:31;7.00;99.90
22526;DHT22;11429;50.842;4.386;2024-03-08T00:03:56;7.00;99.90
22526;DHT22;11429;50.842;4.386;2024-03-08T00:06:22;7.10;99.90
22526;DHT22;11429;50.842;4.386;2024-03-08T00:08:48;7.10;99.90
22526;DHT22;11429;50.842;4.386;2024-03-08T00:11:14;7.10;99.90
22526;DHT22;11429;50.842;4.386;2024-03-08T00:13:39;7.00;99.90
22526;DHT22;11429;50.842;4.386;2024-03-08T00:16:05;7.00;99.90
22526;DHT22;11429;50.842;4.386;2024-03-08T00:18:31;7.00;99.90
22526;DHT22;11429;50.842;4.386;2024-03-08T00:20:58;6.70;99.90
22526;DHT22;11429;50.842;4.386;2024-03-08T00:23:23;6.80;99.90
22526;DHT22;11429;50.842;4.386;2024-03-08T00:25:49;6.90;99.90
22526;DHT22;11429;50.842;4.386;2024-03-08T00:28:15;6.90;99.90
22526;DHT22;11429;50.842;4.386;2024-03-08T00:30:42;6.80;99.90
22526;DHT22;11429;50.842;4.386;2024-03-08T00:33:08;6.60;99.90
22526;DHT22;11429;50.842;4.386;2024-03-08T00:35:34;6.60;99.90
22526;DHT22;11429;50.842;4.386;2024-03-08T00:38:00;6.50;99.90
22526;DHT22;11429;50.842;4.386;2024-03-08T00:40:26;6.60;99.90
22526;DHT22;11429;50.842;4.386;2024-03-08T00:42:51;6.70;99.90
22526;DHT22;11429;50.842;4.386;2024-03-08T00:45:18;6.80;99.90
22526;DHT22;11429;50.842;4.386;2024-03-08T00:47:44;6.70;99.90
22526;DHT22;11429;50.842;4.386;2024-03-08T00:50:11;6.80;99.90
22526;DHT22;11429;50.842;4.386;2024-03-08T00:52:37;6.70;99.90
22526;DHT22;11429;50.842;4.386;2024-03-08T00:55:03;6.50;99.90
22526;DHT22;11429;50.842;4.386;2024-03-08T00:57:29;6.50;99.90
22526;DHT22;11429;50.842;4.386;2024-03-08T00:59:55;6.60;99.90
22526;DHT22;11429;50.842;4.386;2024-03-08T01:02:24;6.40;99.90
22526;DHT22;11429;50.842;4.386;2024-03-08T01:04:50;6.40;99.90
22526;DHT22;11429;50.842;4.386;2024-03-08T01:07:16;6.50;99.90
22526;DHT22;11429;50.842;4.386;2024-03-08T01:09:42;6.40;99.90
22526;DHT22;11429;50.842;4.386;2024-03-08T01:12:08;6.40;99.90
22526;DHT22;11429;50.842;4.386;2024-03-08T01:14:36;6.30;99.90
22526;DHT22;11429;50.842;4.386;2024-03-08T01:17:04;6.30;99.90
22526;DHT22;11429;50.842;4.386;2024-03-08T01:19:33;6.30;99.90
22526;DHT22;11429;50.842;4.386;2024-03-08T01:21:59;6.00;99.90
22526;DHT22;11429;50.842;4.386;2024-03-08T01:24:25;6.10;99.90
22526;DHT22;11429;50.842;4.386;2024-03-08T01:26:50;6.00;99.90
22526;DHT22;11429;50.842;4.386;2024-03-08T01:29:16;6.10;99.90
22526;DHT22;11429;50.842;4.386;2024-03-08T01:31:42;6.20;99.90
22526;DHT22;11429;50.842;4.386;2024-03-08T01:34:08;6.10;99.90
22526;DHT22;11429;50.842;4.386;2024-03-08T01:36:34;6.20;99.90
22526;DHT22;11429;50.842;4.386;2024-03-08T01:39:00;6.10;99.90
22526;DHT22;11429;50.842;4.386;2024-03-08T01:41:25;6.00;99.90
22526;DHT22;11429;50.842;4.386;2024-03-08T01:43:55;6.10;99.90
22526;DHT22;11429;50.842;4.386;2024-03-08T01:46:21;6.10;99.90
22526;DHT22;11429;50.842;4.386;2024-03-08T01:48:47;6.10;99.90
22526;DHT22;11429;50.842;4.386;2024-03-08T01:51:14;6.00;99.90
22526;DHT22;11429;50.842;4.386;2024-03-08T01:53:41;5.90;99.90
22526;DHT22;11429;50.842;4.386;2024-03-08T01:56:08;5.90;99.90
22526;DHT22;11429;50.842;4.386;2024-03-08T01:58:35;5.80;99.90
22526;DHT22;11429;50.842;4.386;2024-03-08T02:01:01;5.90;99.90
22526;DHT22;11429;50.842;4.386;2024-03-08T02:03:29;5.80;99.90
22526;DHT22;11429;50.842;4.386;2024-03-08T02:05:57;5.70;99.90
22526;DHT22;11429;50.842;4.386;2024-03-08T02:08:24;5.80;99.90
22526;DHT22;11429;50.842;4.386;2024-03-08T02:10:50;5.90;99.90
22526;DHT22;11429;50.842;4.386;2024-03-08T02:13:19;5.90;99.90
22526;DHT22;11429;50.842;4.386;2024-03-08T02:15:56;5.90;99.90
22526;DHT22;11429;50.842;4.386;2024-03-08T02:18:23;5.80;99.90
22526;DHT22;11429;50.842;4.386;2024-03-08T02:21:02;5.60;99.90
22526;DHT22;11429;50.842;4.386;2024-03-08T02:23:29;5.70;99.90
22526;DHT22;11429;50.842;4.386;2024-03-08T02:25:56;5.60;99.90
22526;DHT22;11429;50.842;4.386;2024-03-08T02:28:22;5.60;99.90
22526;DHT22;11429;50.842;4.386;2024-03-08T02:30:49;5.60;99.90
22526;DHT22;11429;50.842;4.386;2024-03-08T02:33:17;5.80;99.90
22526;DHT22;11429;50.842;4.386;2024-03-08T02:35:44;5.80;99.90
22526;DHT22;11429;50.842;4.386;2024-03-08T02:38:21;5.80;99.90
22526;DHT22;11429;50.842;4.386;2024-03-08T02:40:49;5.60;99.90
22526;DHT22;11429;50.842;4.386;2024-03-08T02:43:16;5.60;99.90
22526;DHT22;11429;50.842;4.386;2024-03-08T02:45:43;5.50;99.90
22526;DHT22;11429;50.842;4.386;2024-03-08T02:48:13;5.40;99.90
22526;DHT22;11429;50.842;4.386;2024-03-08T02:50:39;5.40;99.90
22526;DHT22;11429;50.842;4.386;2024-03-08T02:53:06;5.40;99.90
22526;DHT22;11429;50.842;4.386;2024-03-08T02:55:34;5.50;99.90
22526;DHT22;11429;50.842;4.386;2024-03-08T02:58:04;5.40;99.90
22526;DHT22;11429;50.842;4.386;2024-03-08T03:00:32;5.60;99.90
22526;DHT22;11429;50.842;4.386;2024-03-08T03:02:59;5.50;99.90
22526;DHT22;11429;50.842;4.386;2024-03-08T03:05:25;5.50;99.90
22526;DHT22;11429;50.842;4.386;2024-03-08T03:07:51;5.40;99.90
22526;DHT22;11429;50.842;4.386;2024-03-08T03:10:21;5.40;99.90
22526;DHT22;11429;50.842;4.386;2024-03-08T03:12:49;5.40;99.90
22526;DHT22;11429;50.842;4.386;2024-03-08T03:15:16;5.30;99.90
22526;DHT22;11429;50.842;4.386;2024-03-08T03:17:48;5.10;99.90
22526;DHT22;11429;50.842;4.386;2024-03-08T03:20:16;5.20;99.90
22526;DHT22;11429;50.842;4.386;2024-03-08T03:22:49;5.20;99.90
22526;DHT22;11429;50.842;4.386;2024-03-08T03:25:20;5.20;99.90
22526;DHT22;11429;50.842;4.386;2024-03-08T03:27:52;5.10;99.90
22526;DHT22;11429;50.842;4.386;2024-03-08T03:30:22;5.10;99.90
22526;DHT22;11429;50.842;4.386;2024-03-08T03:32:48;5.10;99.90
22526;DHT22;11429;50.842;4.386;2024-03-08T03:35:17;5.10;99.90
22526;DHT22;11429;50.842;4.386;2024-03-08T03:37:43;5.20;99.90
22526;DHT22;11429;50.842;4.386;2024-03-08T03:40:16;5.10;99.90
22526;DHT22;11429;50.842;4.386;2024-03-08T03:42:44;5.00;99.90
22526;DHT22;11429;50.842;4.386;2024-03-08T03:45:11;5.00;99.90
22526;DHT22;11429;50.842;4.386;2024-03-08T03:47:36;5.00;99.90
22526;DHT22;11429;50.842;4.386;2024-03-08T03:50:06;5.10;99.90
22526;DHT22;11429;50.842;4.386;2024-03-08T03:52:32;5.00;99.90
22526;DHT22;11429;50.842;4.386;2024-03-08T03:54:58;4.80;99.90
22526;DHT22;11429;50.842;4.386;2024-03-08T03:57:24;4.80;99.90
22526;DHT22;11429;50.842;4.386;2024-03-08T03:59:49;4.80;99.90
22526;DHT22;11429;50.842;4.386;2024-03-08T04:02:17;4.90;99.90
22526;DHT22;11429;50.842;4.386;2024-03-08T04:04:46;4.80;99.90
22526;DHT22;11429;50.842;4.386;2024-03-08T04:07:14;4.80;99.90
22526;DHT22;11429;50.842;4.386;2024-03-08T04:09:41;4.90;99.90
22526;DHT22;11429;50.842;4.386;2024-03-08T04:12:07;5.00;99.90
22526;DHT22;11429;50.842;4.386;2024-03-08T04:14:33;4.90;99.90
22526;DHT22;11429;50.842;4.386;2024-03-08T04:17:02;4.90;99.90
22526;DHT22;11429;50.842;4.386;2024-03-08T04:19:28;4.90;99.90
22526;DHT22;11429;50.842;4.386;2024-03-08T04:21:54;4.70;99.90
22526;DHT22;11429;50.842;4.386;2024-03-08T04:24:20;4.70;99.90
22526;DHT22;11429;50.842;4.386;2024-03-08T04:26:46;4.60;99.90
22526;DHT22;11429;50.842;4.386;2024-03-08T04:29:13;4.80;99.90
22526;DHT22;11429;50.842;4.386;2024-03-08T04:31:40;4.80;99.90
22526;DHT22;11429;50.842;4.386;2024-03-08T04:34:06;4.80;99.90
22526;DHT22;11429;50.842;4.386;2024-03-08T04:36:34;4.70;99.90
22526;DHT22;11429;50.842;4.386;2024-03-08T04:39:00;4.70;99.90
22526;DHT22;11429;50.842;4.386;2024-03-08T04:41:26;4.60;99.90
22526;DHT22;11429;50.842;4.386;2024-03-08T04:43:52;4.70;99.90
22526;DHT22;11429;50.842;4.386;2024-03-08T04:46:18;4.60;99.90
22526;DHT22;11429;50.842;4.386;2024-03-08T04:48:44;4.50;99.90
22526;DHT22;11429;50.842;4.386;2024-03-08T04:51:10;4.40;99.90
22526;DHT22;11429;50.842;4.386;2024-03-08T04:53:36;4.50;99.90
22526;DHT22;11429;50.842;4.386;2024-03-08T04:56:02;4.60;99.90
22526;DHT22;11429;50.842;4.386;2024-03-08T04:58:33;4.70;99.90
22526;DHT22;11429;50.842;4.386;2024-03-08T05:01:01;4.70;99.90
22526;DHT22;11429;50.842;4.386;2024-03-08T05:03:27;4.50;99.90
22526;DHT22;11429;50.842;4.386;2024-03-08T05:05:53;4.40;99.90
22526;DHT22;11429;50.842;4.386;2024-03-08T05:08:19;4.40;99.90
22526;DHT22;11429;50.842;4.386;2024-03-08T05:10:45;4.40;99.90
22526;DHT22;11429;50.842;4.386;2024-03-08T05:13:12;4.40;99.90
22526;DHT22;11429;50.842;4.386;2024-03-08T05:15:38;4.40;99.90
22526;DHT22;11429;50.842;4.386;2024-03-08T05:18:05;4.30;99.90
22526;DHT22;11429;50.842;4.386;2024-03-08T05:20:30;4.60;99.90
22526;DHT22;11429;50.842;4.386;2024-03-08T05:22:56;4.60;99.90
22526;DHT22;11429;50.842;4.386;2024-03-08T05:25:26;4.50;99.90
22526;DHT22;11429;50.842;4.386;2024-03-08T05:27:52;4.50;99.90
22526;DHT22;11429;50.842;4.386;2024-03-08T05:30:18;4.40;99.90
22526;DHT22;11429;50.842;4.386;2024-03-08T05:32:44;4.40;99.90
22526;DHT22;11429;50.842;4.386;2024-03-08T05:35:11;4.30;99.90
22526;DHT22;11429;50.842;4.386;2024-03-08T05:37:40;4.50;99.90
22526;DHT22;11429;50.842;4.386;2024-03-08T05:40:08;4.40;99.90
22526;DHT22;11429;50.842;4.386;2024-03-08T05:42:37;4.30;99.90
22526;DHT22;11429;50.842;4.386;2024-03-08T05:45:04;4.20;99.90
22526;DHT22;11429;50.842;4.386;2024-03-08T05:47:29;4.40;99.90
22526;DHT22;11429;50.842;4.386;2024-03-08T05:49:55;4.50;99.90
22526;DHT22;11429;50.842;4.386;2024-03-08T05:52:21;4.50;99.90
22526;DHT22;11429;50.842;4.386;2024-03-08T05:54:47;4.40;99.90
22526;DHT22;11429;50.842;4.386;2024-03-08T05:57:12;4.40;99.90
22526;DHT22;11429;50.842;4.386;2024-03-08T05:59:39;4.40;99.90
22526;DHT22;11429;50.842;4.386;2024-03-08T06:02:05;4.50;99.90
22526;DHT22;11429;50.842;4.386;2024-03-08T06:04:31;4.40;99.90
22526;DHT22;11429;50.842;4.386;2024-03-08T06:06:57;4.30;99.90
22526;DHT22;11429;50.842;4.386;2024-03-08T06:09:24;4.30;99.90
22526;DHT22;11429;50.842;4.386;2024-03-08T06:11:51;4.30;99.90
22526;DHT22;11429;50.842;4.386;2024-03-08T06:14:17;4.20;99.90
22526;DHT22;11429;50.842;4.386;2024-03-08T06:16:47;4.40;99.90
22526;DHT22;11429;50.842;4.386;2024-03-08T06:19:15;4.30;99.90
22526;DHT22;11429;50.842;4.386;2024-03-08T06:21:42;4.40;99.90
22526;DHT22;11429;50.842;4.386;2024-03-08T06:24:08;4.40;99.90
22526;DHT22;11429;50.842;4.386;2024-03-08T06:26:34;4.40;99.90
22526;DHT22;11429;50.842;4.386;2024-03-08T06:29:00;4.30;99.90
22526;DHT22;11429;50.842;4.386;2024-03-08T06:31:25;4.30;99.90
22526;DHT22;11429;50.842;4.386;2024-03-08T06:33:51;4.20;99.90
22526;DHT22;11429;50.842;4.386;2024-03-08T06:36:19;4.10;99.90
22526;DHT22;11429;50.842;4.386;2024-03-08T06:38:50;4.00;99.90
22526;DHT22;11429;50.842;4.386;2024-03-08T06:41:16;4.40;99.90
22526;DHT22;11429;50.842;4.386;2024-03-08T06:43:45;4.70;99.90
22526;DHT22;11429;50.842;4.386;2024-03-08T06:46:12;4.50;99.90
22526;DHT22;11429;50.842;4.386;2024-03-08T08:24:38;7.80;99.90
22526;DHT22;11429;50.842;4.386;2024-03-08T08:27:04;7.70;99.90
22526;DHT22;11429;50.842;4.386;2024-03-08T08:29:30;7.70;99.90
22526;DHT22;11429;50.842;4.386;2024-03-08T08:31:58;7.90;99.90
22526;DHT22;11429;50.842;4.386;2024-03-08T08:34:25;7.90;99.90
22526;DHT22;11429;50.842;4.386;2024-03-08T08:36:52;7.60;99.90
22526;DHT22;11429;50.842;4.386;2024-03-08T08:39:18;8.00;99.90
22526;DHT22;11429;50.842;4.386;2024-03-08T08:41:44;7.80;99.90
22526;DHT22;11429;50.842;4.386;2024-03-08T08:44:10;8.00;99.90
22526;DHT22;11429;50.842;4.386;2024-03-08T08:46:38;8.20;99.90
22526;DHT22;11429;50.842;4.386;2024-03-08T08:49:04;8.20;99.90
22526;DHT22;11429;50.842;4.386;2024-03-08T08:51:31;8.70;99.90
22526;DHT22;11429;50.842;4.386;2024-03-08T08:53:59;9.00;99.90
22526;DHT22;11429;50.842;4.386;2024-03-08T08:56:25;9.80;99.90
22526;DHT22;11429;50.842;4.386;2024-03-08T08:58:52;10.90;99.90
22526;DHT22;11429;50.842;4.386;2024-03-08T09:01:19;10.60;99.90
22526;DHT22;11429;50.842;4.386;2024-03-08T09:03:45;10.20;99.90
22526;DHT22;11429;50.842;4.386;2024-03-08T09:06:12;10.20;99.90
22526;DHT22;11429;50.842;4.386;2024-03-08T09:08:41;10.20;99.90
22526;DHT22;11429;50.842;4.386;2024-03-08T09:11:07;9.80;99.90
22526;DHT22;11429;50.842;4.386;2024-03-08T09:13:33;9.60;99.90
22526;DHT22;11429;50.842;4.386;2024-03-08T09:15:59;9.50;99.90
22526;DHT22;11429;50.842;4.386;2024-03-08T09:18:25;9.10;99.90
22526;DHT22;11429;50.842;4.386;2024-03-08T09:20:51;9.00;99.90
22526;DHT22;11429;50.842;4.386;2024-03-08T09:23:22;9.30;99.90
22526;DHT22;11429;50.842;4.386;2024-03-08T09:25:48;9.80;99.90
22526;DHT22;11429;50.842;4.386;2024-03-08T09:28:14;9.40;99.90
22526;DHT22;11429;50.842;4.386;2024-03-08T09:30:41;9.00;99.90
22526;DHT22;11429;50.842;4.386;2024-03-08T09:33:07;9.40;99.90
22526;DHT22;11429;50.842;4.386;2024-03-08T09:35:33;9.60;99.90
22526;DHT22;11429;50.842;4.386;2024-03-08T09:37:59;9.90;99.90
22526;DHT22;11429;50.842;4.386;2024-03-08T09:40:24;9.90;99.90
22526;DHT22;11429;50.842;4.386;2024-03-08T09:42:51;9.80;99.90
22526;DHT22;11429;50.842;4.386;2024-03-08T09:45:20;9.60;99.90
22526;DHT22;11429;50.842;4.386;2024-03-08T09:47:47;10.10;99.90
22526;DHT22;11429;50.842;4.386;2024-03-08T09:50:14;10.50;99.90
22526;DHT22;11429;50.842;4.386;2024-03-08T09:52:44;11.00;99.90
22526;DHT22;11429;50.842;4.386;2024-03-08T09:55:12;11.20;99.90
22526;DHT22;11429;50.842;4.386;2024-03-08T09:57:38;11.30;99.90
22526;DHT22;11429;50.842;4.386;2024-03-08T10:00:05;10.70;99.90
22526;DHT22;11429;50.842;4.386;2024-03-08T10:02:47;11.10;99.90
22526;DHT22;11429;50.842;4.386;2024-03-08T10:05:14;11.10;99.90
22526;DHT22;11429;50.842;4.386;2024-03-08T10:07:40;11.60;99.90
22526;DHT22;11429;50.842;4.386;2024-03-08T10:10:06;12.10;99.90
22526;DHT22;11429;50.842;4.386;2024-03-08T10:12:34;12.30;99.90
22526;DHT22;11429;50.842;4.386;2024-03-08T10:15:00;13.30;99.90
22526;DHT22;11429;50.842;4.386;2024-03-08T10:17:26;13.70;99.90
22526;DHT22;11429;50.842;4.386;2024-03-08T10:19:57;14.20;99.90
22526;DHT22;11429;50.842;4.386;2024-03-08T10:22:25;15.10;99.90
22526;DHT22;11429;50.842;4.386;2024-03-08T10:24:51;15.30;99.90
22526;DHT22;11429;50.842;4.386;2024-03-08T10:27:17;14.50;99.90
22526;DHT22;11429;50.842;4.386;2024-03-08T10:29:48;14.20;99.90
22526;DHT22;11429;50.842;4.386;2024-03-08T10:32:14;14.80;99.90
22526;DHT22;11429;50.842;4.386;2024-03-08T10:34:40;14.60;99.90
22526;DHT22;11429;50.842;4.386;2024-03-08T10:37:07;15.10;99.90
22526;DHT22;11429;50.842;4.386;2024-03-08T10:39:39;15.90;99.90
22526;DHT22;11429;50.842;4.386;2024-03-08T10:42:16;15.20;99.90
22526;DHT22;11429;50.842;4.386;2024-03-08T10:44:51;14.60;99.90
22526;DHT22;11429;50.842;4.386;2024-03-08T10:47:26;15.20;99.90
22526;DHT22;11429;50.842;4.386;2024-03-08T10:50:11;15.30;99.90
22526;DHT22;11429;50.842;4.386;2024-03-08T10:52:48;15.80;99.90
22526;DHT22;11429;50.842;4.386;2024-03-08T10:55:16;15.00;99.90
22526;DHT22;11429;50.842;4.386;2024-03-08T10:57:42;15.90;99.90
22526;DHT22;11429;50.842;4.386;2024-03-08T11:00:09;16.00;99.90
22526;DHT22;11429;50.842;4.386;2024-03-08T11:02:37;16.70;99.90
22526;DHT22;11429;50.842;4.386;2024-03-08T11:05:10;16.80;99.90
22526;DHT22;11429;50.842;4.386;2024-03-08T11:07:42;15.60;99.90
22526;DHT22;11429;50.842;4.386;2024-03-08T11:10:19;15.40;99.90
22526;DHT22;11429;50.842;4.386;2024-03-08T11:12:45;15.90;99.90
22526;DHT22;11429;50.842;4.386;2024-03-08T11:15:13;16.20;99.90
22526;DHT22;11429;50.842;4.386;2024-03-08T11:17:40;16.20;99.90
22526;DHT22;11429;50.842;4.386;2024-03-08T11:20:16;15.40;99.90
22526;DHT22;11429;50.842;4.386;2024-03-08T11:22:54;15.90;99.90
22526;DHT22;11429;50.842;4.386;2024-03-08T11:25:39;15.60;99.90
22526;DHT22;11429;50.842;4.386;2024-03-08T11:28:17;15.60;99.90
22526;DHT22;11429;50.842;4.386;2024-03-08T11:33:30;16.70;99.90
22526;DHT22;11429;50.842;4.386;2024-03-08T11:36:10;16.80;99.90
22526;DHT22;11429;50.842;4.386;2024-03-08T11:38:42;15.20;99.90
22526;DHT22;11429;50.842;4.386;2024-03-08T11:41:16;14.30;99.90
22526;DHT22;11429;50.842;4.386;2024-03-08T11:43:43;15.40;99.90
22526;DHT22;11429;50.842;4.386;2024-03-08T11:46:10;15.60;99.90
22526;DHT22;11429;50.842;4.386;2024-03-08T11:48:39;15.20;99.90
22526;DHT22;11429;50.842;4.386;2024-03-08T11:51:08;14.90;99.90
22526;DHT22;11429;50.842;4.386;2024-03-08T11:53:34;14.90;99.90
22526;DHT22;11429;50.842;4.386;2024-03-08T11:56:08;15.10;99.90
22526;DHT22;11429;50.842;4.386;2024-03-08T11:58:35;15.30;99.90
22526;DHT22;11429;50.842;4.386;2024-03-08T12:01:07;15.00;99.90
22526;DHT22;11429;50.842;4.386;2024-03-08T12:03:38;15.00;99.90
22526;DHT22;11429;50.842;4.386;2024-03-08T12:06:04;15.50;99.90
22526;DHT22;11429;50.842;4.386;2024-03-08T12:08:33;15.60;99.90
22526;DHT22;11429;50.842;4.386;2024-03-08T12:10:59;15.40;99.90
22526;DHT22;11429;50.842;4.386;2024-03-08T12:13:30;15.40;99.90
22526;DHT22;11429;50.842;4.386;2024-03-08T12:16:00;15.30;99.90
22526;DHT22;11429;50.842;4.386;2024-03-08T12:18:33;14.70;99.90
22526;DHT22;11429;50.842;4.386;2024-03-08T12:21:12;14.50;99.90
22526;DHT22;11429;50.842;4.386;2024-03-08T12:23:39;14.20;99.90
22526;DHT22;11429;50.842;4.386;2024-03-08T12:26:18;13.90;99.90
22526;DHT22;11429;50.842;4.386;2024-03-08T12:28:48;13.90;99.90
22526;DHT22;11429;50.842;4.386;2024-03-08T12:31:18;13.90;99.90
22526;DHT22;11429;50.842;4.386;2024-03-08T12:33:55;13.80;99.90
22526;DHT22;11429;50.842;4.386;2024-03-08T12:36:24;13.90;99.90
22526;DHT22;11429;50.842;4.386;2024-03-08T12:38:51;13.90;99.90
22526;DHT22;11429;50.842;4.386;2024-03-08T12:41:18;13.50;99.90
22526;DHT22;11429;50.842;4.386;2024-03-08T12:43:47;13.60;99.90
22526;DHT22;11429;50.842;4.386;2024-03-08T12:46:20;13.40;99.90
22526;DHT22;11429;50.842;4.386;2024-03-08T12:48:46;13.40;99.90
22526;DHT22;11429;50.842;4.386;2024-03-08T12:51:16;13.20;99.90
22526;DHT22;11429;50.842;4.386;2024-03-08T12:53:43;13.30;99.90
22526;DHT22;11429;50.842;4.386;2024-03-08T12:56:33;13.40;99.90
22526;DHT22;11429;50.842;4.386;2024-03-08T12:59:03;13.70;99.90
22526;DHT22;11429;50.842;4.386;2024-03-08T13:01:29;13.50;99.90
22526;DHT22;11429;50.842;4.386;2024-03-08T13:03:57;13.30;99.90
22526;DHT22;11429;50.842;4.386;2024-03-08T13:06:24;12.90;99.90
22526;DHT22;11429;50.842;4.386;2024-03-08T13:08:53;12.80;99.90
22526;DHT22;11429;50.842;4.386;2024-03-08T13:11:20;12.60;99.90
22526;DHT22;11429;50.842;4.386;2024-03-08T13:13:46;12.60;99.90
22526;DHT22;11429;50.842;4.386;2024-03-08T13:16:12;12.80;99.90
22526;DHT22;11429;50.842;4.386;2024-03-08T13:18:41;12.80;99.90
22526;DHT22;11429;50.842;4.386;2024-03-08T13:21:12;12.80;99.90
22526;DHT22;11429;50.842;4.386;2024-03-08T13:23:41;12.70;99.90
22526;DHT22;11429;50.842;4.386;2024-03-08T13:26:11;12.60;99.90
22526;DHT22;11429;50.842;4.386;2024-03-08T13:28:45;12.70;99.90
22526;DHT22;11429;50.842;4.386;2024-03-08T13:31:11;12.60;99.90
22526;DHT22;11429;50.842;4.386;2024-03-08T13:33:37;12.60;99.90
22526;DHT22;11429;50.842;4.386;2024-03-08T13:36:05;12.60;99.90
22526;DHT22;11429;50.842;4.386;2024-03-08T13:38:32;12.70;99.90
22526;DHT22;11429;50.842;4.386;2024-03-08T13:40:59;12.80;99.90
22526;DHT22;11429;50.842;4.386;2024-03-08T13:43:25;12.70;99.90
22526;DHT22;11429;50.842;4.386;2024-03-08T13:45:50;12.70;99.90
22526;DHT22;11429;50.842;4.386;2024-03-08T13:48:17;12.70;99.90
22526;DHT22;11429;50.842;4.386;2024-03-08T13:50:43;12.60;99.90
22526;DHT22;11429;50.842;4.386;2024-03-08T13:53:09;12.40;99.90
22526;DHT22;11429;50.842;4.386;2024-03-08T13:55:35;12.50;99.90
22526;DHT22;11429;50.842;4.386;2024-03-08T13:58:01;12.90;99.90
22526;DHT22;11429;50.842;4.386;2024-03-08T14:00:28;12.90;99.90
22526;DHT22;11429;50.842;4.386;2024-03-08T14:02:59;13.00;99.90
22526;DHT22;11429;50.842;4.386;2024-03-08T14:05:24;13.00;99.90
22526;DHT22;11429;50.842;4.386;2024-03-08T14:07:50;12.80;99.90
22526;DHT22;11429;50.842;4.386;2024-03-08T14:10:19;12.90;99.90
22526;DHT22;11429;50.842;4.386;2024-03-08T14:12:48;13.10;99.90
22526;DHT22;11429;50.842;4.386;2024-03-08T14:15:15;12.90;99.90
22526;DHT22;11429;50.842;4.386;2024-03-08T14:17:42;12.90;99.90
22526;DHT22;11429;50.842;4.386;2024-03-08T14:20:08;13.00;99.90
22526;DHT22;11429;50.842;4.386;2024-03-08T14:22:35;13.00;99.90
22526;DHT22;11429;50.842;4.386;2024-03-08T14:25:00;13.00;99.90
22526;DHT22;11429;50.842;4.386;2024-03-08T14:27:26;13.00;99.90
22526;DHT22;11429;50.842;4.386;2024-03-08T14:29:52;12.90;99.90
22526;DHT22;11429;50.842;4.386;2024-03-08T14:32:20;12.80;99.90
22526;DHT22;11429;50.842;4.386;2024-03-08T14:34:48;12.70;99.90
22526;DHT22;11429;50.842;4.386;2024-03-08T14:37:14;13.00;99.90
22526;DHT22;11429;50.842;4.386;2024-03-08T14:39:40;13.10;99.90
22526;DHT22;11429;50.842;4.386;2024-03-08T14:42:06;13.20;99.90
22526;DHT22;11429;50.842;4.386;2024-03-08T14:44:34;13.30;99.90
22526;DHT22;11429;50.842;4.386;2024-03-08T14:47:00;13.30;99.90
22526;DHT22;11429;50.842;4.386;2024-03-08T14:49:26;13.30;99.90
22526;DHT22;11429;50.842;4.386;2024-03-08T14:51:54;13.20;99.90
22526;DHT22;11429;50.842;4.386;2024-03-08T14:54:20;13.10;99.90
22526;DHT22;11429;50.842;4.386;2024-03-08T14:56:48;13.20;99.90
22526;DHT22;11429;50.842;4.386;2024-03-08T14:59:17;13.30;99.90
22526;DHT22;11429;50.842;4.386;2024-03-08T15:01:45;13.30;99.90
22526;DHT22;11429;50.842;4.386;2024-03-08T15:04:11;13.20;99.90
22526;DHT22;11429;50.842;4.386;2024-03-08T15:06:41;13.20;99.90
22526;DHT22;11429;50.842;4.386;2024-03-08T15:09:08;13.10;99.90
22526;DHT22;11429;50.842;4.386;2024-03-08T15:11:41;13.20;99.90
22526;DHT22;11429;50.842;4.386;2024-03-08T15:14:08;13.20;99.90
22526;DHT22;11429;50.842;4.386;2024-03-08T15:16:37;13.10;99.90
22526;DHT22;11429;50.842;4.386;2024-03-08T15:19:05;13.20;99.90
22526;DHT22;11429;50.842;4.386;2024-03-08T15:21:31;13.20;99.90
22526;DHT22;11429;50.842;4.386;2024-03-08T15:23:57;13.10;99.90
22526;DHT22;11429;50.842;4.386;2024-03-08T15:26:23;13.10;99.90
22526;DHT22;11429;50.842;4.386;2024-03-08T15:28:51;13.20;99.90
22526;DHT22;11429;50.842;4.386;2024-03-08T15:31:17;13.20;99.90
22526;DHT22;11429;50.842;4.386;2024-03-08T15:33:44;13.20;99.90
22526;DHT22;11429;50.842;4.386;2024-03-08T15:36:14;13.30;99.90
22526;DHT22;11429;50.842;4.386;2024-03-08T15:38:41;13.20;99.90
22526;DHT22;11429;50.842;4.386;2024-03-08T15:41:09;13.20;99.90
22526;DHT22;11429;50.842;4.386;2024-03-08T15:43:39;13.30;99.90
22526;DHT22;11429;50.842;4.386;2024-03-08T15:46:05;13.40;99.90
22526;DHT22;11429;50.842;4.386;2024-03-08T15:48:32;13.40;99.90
22526;DHT22;11429;50.842;4.386;2024-03-08T15:50:59;13.20;99.90
22526;DHT22;11429;50.842;4.386;2024-03-08T15:53:37;13.10;99.90
22526;DHT22;11429;50.842;4.386;2024-03-08T15:56:04;13.00;99.90
22526;DHT22;11429;50.842;4.386;2024-03-08T15:58:34;12.90;99.90
22526;DHT22;11429;50.842;4.386;2024-03-08T16:01:03;12.90;99.90
22526;DHT22;11429;50.842;4.386;2024-03-08T16:03:32;13.00;99.90
22526;DHT22;11429;50.842;4.386;2024-03-08T16:05:58;13.00;99.90
22526;DHT22;11429;50.842;4.386;2024-03-08T16:08:25;13.10;99.90
22526;DHT22;11429;50.842;4.386;2024-03-08T16:10:52;13.00;99.90
22526;DHT22;11429;50.842;4.386;2024-03-08T16:13:24;12.90;99.90
22526;DHT22;11429;50.842;4.386;2024-03-08T16:15:54;12.90;99.90
22526;DHT22;11429;50.842;4.386;2024-03-08T16:18:21;12.90;99.90
22526;DHT22;11429;50.842;4.386;2024-03-08T16:20:50;13.00;99.90
22526;DHT22;11429;50.842;4.386;2024-03-08T16:23:16;12.90;99.90
22526;DHT22;11429;50.842;4.386;2024-03-08T16:25:46;13.00;99.90
22526;DHT22;11429;50.842;4.386;2024-03-08T16:28:13;12.80;99.90
22526;DHT22;11429;50.842;4.386;2024-03-08T16:33:33;12.90;99.90
22526;DHT22;11429;50.842;4.386;2024-03-08T16:36:00;12.80;99.90
22526;DHT22;11429;50.842;4.386;2024-03-08T16:38:28;12.80;99.90
22526;DHT22;11429;50.842;4.386;2024-03-08T16:40:54;12.60;99.90
22526;DHT22;11429;50.842;4.386;2024-03-08T16:43:26;12.60;99.90
22526;DHT22;11429;50.842;4.386;2024-03-08T16:45:52;12.50;99.90
22526;DHT22;11429;50.842;4.386;2024-03-08T16:48:19;12.50;99.90
22526;DHT22;11429;50.842;4.386;2024-03-08T16:50:48;12.40;99.90
22526;DHT22;11429;50.842;4.386;2024-03-08T16:53:15;12.30;99.90
22526;DHT22;11429;50.842;4.386;2024-03-08T16:55:41;12.30;99.90
22526;DHT22;11429;50.842;4.386;2024-03-08T16:58:07;12.40;99.90
22526;DHT22;11429;50.842;4.386;2024-03-08T17:00:39;12.40;99.90
22526;DHT22;11429;50.842;4.386;2024-03-08T17:03:10;12.40;99.90
22526;DHT22;11429;50.842;4.386;2024-03-08T17:05:37;12.30;99.90
22526;DHT22;11429;50.842;4.386;2024-03-08T17:08:05;12.40;99.90
22526;DHT22;11429;50.842;4.386;2024-03-08T17:10:33;12.30;99.90
22526;DHT22;11429;50.842;4.386;2024-03-08T17:13:00;12.10;99.90
22526;DHT22;11429;50.842;4.386;2024-03-08T17:15:28;12.10;99.90
22526;DHT22;11429;50.842;4.386;2024-03-08T17:17:56;12.10;99.90
22526;DHT22;11429;50.842;4.386;2024-03-08T17:20:25;12.10;99.90
22526;DHT22;11429;50.842;4.386;2024-03-08T17:22:55;11.90;99.90